Time;durP1;ratioP1;P1;durP2;ratioP2;P2;SDS_P1;SDS_P2;PMS_P1;PMS_P2;Temp;Humidity;BMP_temperature;BMP_pressure;BME280_temperature;BME280_humidity;BME280_pressure;Samples;Min_cycle;Max_cycle;Signal;HPM_P1;HPM_P2
2021/09/23 00:00:55;;;;;;;;;16.25;15.25;;;;;14.69;67.27;102267.78;4999727;28;45312;-85
2021/09/23 00:03:32;;;;;;;;;16.75;15.25;;;;;14.66;67.16;102271.38;4995186;28;45399;-84
2021/09/23 00:05:59;;;;;;;;;18.25;17.00;;;;;14.64;67.42;102267.91;4997324;28;45458;-86
2021/09/23 00:08:24;;;;;;;;;23.00;18.75;;;;;14.61;67.24;102260.91;4999421;28;45224;-86
2021/09/23 00:10:50;;;;;;;;;19.75;18.50;;;;;14.60;67.46;102258.28;4999569;28;45305;-86
2021/09/23 00:13:16;;;;;;;;;20.00;16.75;;;;;14.62;67.28;102259.97;4998086;28;46303;-85
2021/09/23 00:15:43;;;;;;;;;21.50;20.00;;;;;14.58;67.47;102247.75;4998844;28;45321;-85
2021/09/23 00:18:12;;;;;;;;;25.75;20.75;;;;;14.57;67.58;102253.94;4999627;28;45827;-85
2021/09/23 00:20:40;;;;;;;;;18.50;17.50;;;;;14.56;67.69;102244.28;4999364;28;45475;-84
2021/09/23 00:23:08;;;;;;;;;19.75;17.75;;;;;14.57;67.72;102247.78;4997614;28;45770;-86
2021/09/23 00:25:35;;;;;;;;;23.75;19.75;;;;;14.55;67.70;102246.94;4998859;28;45609;-89
2021/09/23 00:28:03;;;;;;;;;25.50;21.75;;;;;14.55;67.67;102239.00;5000994;28;45202;-90
2021/09/23 00:30:29;;;;;;;;;26.00;18.25;;;;;14.51;67.73;102232.94;5008041;28;45512;-90
2021/09/23 00:32:55;;;;;;;;;24.50;19.00;;;;;14.45;67.59;102236.59;5015289;28;47132;-89
2021/09/23 05:42:03;;;;;;;;;27.25;26.00;;;;;13.10;70.08;102122.53;5223717;23;46210;-84
2021/09/23 05:44:29;;;;;;;;;23.00;23.00;;;;;13.12;70.50;102132.16;4947592;28;45713;-85
2021/09/23 05:46:57;;;;;;;;;23.75;23.50;;;;;13.12;70.57;102120.72;4944474;28;45320;-84
2021/09/23 05:49:22;;;;;;;;;27.25;25.00;;;;;13.13;70.53;102130.38;4929463;28;46233;-85
2021/09/23 05:51:49;;;;;;;;;28.50;24.75;;;;;13.11;70.66;102129.56;4945045;28;45729;-84
2021/09/23 05:54:15;;;;;;;;;23.75;23.25;;;;;13.13;70.87;102133.03;4941677;28;45739;-84
2021/09/23 05:56:41;;;;;;;;;30.75;26.50;;;;;13.09;70.59;102126.09;4942570;28;45309;-83
2021/09/23 05:59:07;;;;;;;;;26.75;24.25;;;;;13.13;70.65;102135.66;4946373;28;45293;-83
2021/09/23 06:01:32;;;;;;;;;33.25;24.75;;;;;13.12;70.72;102136.56;4941106;28;45694;-83
2021/09/23 06:03:58;;;;;;;;;28.25;26.25;;;;;13.09;70.60;102126.09;4942662;28;45391;-83
2021/09/23 06:06:23;;;;;;;;;35.50;27.25;;;;;13.10;70.93;102125.16;4941757;28;45459;-82
2021/09/23 06:08:48;;;;;;;;;27.25;24.75;;;;;13.12;70.83;102133.91;4943305;28;45482;-86
2021/09/23 06:11:15;;;;;;;;;34.50;29.75;;;;;13.13;70.82;102135.66;4924747;28;45902;-86
2021/09/23 06:13:43;;;;;;;;;25.75;25.50;;;;;13.15;70.96;102147.06;4942649;28;45409;-86
2021/09/23 06:16:09;;;;;;;;;27.50;25.25;;;;;13.13;71.12;102147.09;4944315;28;45547;-86
2021/09/23 06:18:35;;;;;;;;;32.00;27.75;;;;;13.16;71.15;102147.00;4941737;28;45535;-86
2021/09/23 06:21:00;;;;;;;;;29.75;28.75;;;;;13.22;71.07;102153.94;4942287;28;45395;-86
2021/09/23 06:23:26;;;;;;;;;37.50;28.25;;;;;13.23;71.26;102153.06;4942793;28;45416;-89
2021/09/23 06:25:52;;;;;;;;;32.25;29.50;;;;;13.21;71.43;102138.16;4938180;28;45499;-90
2021/09/23 06:28:17;;;;;;;;;34.50;29.00;;;;;13.24;71.38;102146.84;4940627;28;46058;-94
2021/09/23 06:30:42;;;;;;;;;34.50;30.00;;;;;13.25;71.40;102153.88;4941836;28;47070;-92
2021/09/23 06:33:08;;;;;;;;;35.75;29.25;;;;;13.24;71.68;102157.41;4940747;28;45301;-83
2021/09/23 06:35:33;;;;;;;;;31.75;29.00;;;;;13.27;71.72;102159.13;4940256;28;46066;-85
2021/09/23 06:37:59;;;;;;;;;32.00;28.00;;;;;13.30;71.78;102150.25;4923889;28;46876;-85
2021/09/23 06:40:24;;;;;;;;;29.75;28.00;;;;;13.34;71.86;102162.47;4941840;28;45347;-85
2021/09/23 06:42:50;;;;;;;;;28.25;28.00;;;;;13.36;72.10;102158.03;4941954;28;45290;-86
2021/09/23 06:45:16;;;;;;;;;32.50;29.00;;;;;13.40;72.28;102162.38;4941718;28;45440;-85
2021/09/23 06:47:41;;;;;;;;;27.75;27.25;;;;;13.46;72.34;102162.22;4941907;28;45203;-85
2021/09/23 06:50:07;;;;;;;;;34.25;29.25;;;;;13.47;72.11;102153.41;4953611;28;45483;-86
2021/09/23 06:52:33;;;;;;;;;28.25;25.50;;;;;13.49;72.34;102151.59;4942735;28;45273;-87
2021/09/23 06:54:59;;;;;;;;;34.25;28.50;;;;;13.56;72.42;102156.72;4939099;28;45693;-87
2021/09/23 06:57:25;;;;;;;;;31.50;27.00;;;;;13.60;72.34;102161.09;4939407;28;45396;-86
2021/09/23 06:59:50;;;;;;;;;29.00;25.00;;;;;13.69;72.35;102171.44;4940619;28;45400;-86
2021/09/23 07:02:15;;;;;;;;;30.50;24.00;;;;;13.77;72.10;102154.53;4922988;28;46392;-86
2021/09/23 07:04:41;;;;;;;;;27.00;26.75;;;;;13.83;71.85;102154.38;4920079;28;45437;-86
2021/09/23 07:07:07;;;;;;;;;31.00;25.75;;;;;13.88;71.97;102147.19;4938450;28;45971;-86
2021/09/23 07:09:32;;;;;;;;;31.50;26.25;;;;;13.93;72.05;102150.59;4939703;28;47175;-86
2021/09/23 07:11:58;;;;;;;;;27.00;25.25;;;;;14.02;71.78;102151.28;4941495;28;45534;-86
2021/09/23 07:14:24;;;;;;;;;29.75;24.25;;;;;14.03;71.65;102153.88;4942095;28;45389;-86
2021/09/23 07:16:50;;;;;;;;;31.75;28.50;;;;;14.10;71.61;102151.94;4939891;28;45638;-87
2021/09/23 07:19:15;;;;;;;;;32.75;29.00;;;;;14.16;71.72;102154.47;4938897;28;47043;-86
2021/09/23 07:21:40;;;;;;;;;34.75;29.75;;;;;14.24;71.25;102158.69;4923084;28;45394;-85
2021/09/23 07:24:06;;;;;;;;;33.75;31.25;;;;;14.27;71.24;102148.88;4940269;28;45457;-86
2021/09/23 07:26:31;;;;;;;;;34.25;27.25;;;;;14.33;71.59;102139.91;4939490;28;45461;-86
2021/09/23 07:28:58;;;;;;;;;31.50;27.00;;;;;14.40;71.44;102140.63;4939998;28;45357;-86
2021/09/23 07:31:24;;;;;;;;;29.25;28.75;;;;;14.46;71.50;102142.22;4939664;28;45821;-86
2021/09/23 07:33:50;;;;;;;;;31.75;29.75;;;;;14.49;71.15;102147.44;4938613;28;45516;-86
2021/09/23 07:36:16;;;;;;;;;35.75;33.25;;;;;14.55;70.70;102146.41;4939678;28;45386;-86
2021/09/23 07:38:42;;;;;;;;;36.50;33.00;;;;;14.56;70.13;102142.84;4940232;28;45673;-86
2021/09/23 07:41:07;;;;;;;;;31.25;29.25;;;;;14.67;70.39;102140.78;4939373;28;45348;-87
2021/09/23 07:43:32;;;;;;;;;46.50;36.00;;;;;14.72;70.57;102138.00;4939898;28;45894;-86
2021/09/23 07:45:58;;;;;;;;;35.00;32.50;;;;;14.78;69.78;102136.97;4940084;28;45662;-87
2021/09/23 07:48:23;;;;;;;;;37.00;31.25;;;;;14.82;69.83;102130.66;4939452;28;46119;-86
2021/09/23 07:50:49;;;;;;;;;36.75;34.25;;;;;14.84;69.70;102132.34;4941708;28;45486;-87
2021/09/23 07:53:15;;;;;;;;;39.00;33.00;;;;;14.94;69.71;102140.06;4938378;28;45429;-86
2021/09/23 07:56:02;;;;;;;;;30.00;28.00;;;;;14.99;69.42;102138.13;4921813;28;47029;-87
2021/09/23 07:58:27;;;;;;;;;43.00;34.75;;;;;15.00;69.57;102133.72;4939745;28;46442;-86
2021/09/23 08:00:53;;;;;;;;;36.50;31.00;;;;;15.06;69.45;102134.41;4940024;28;45298;-87
2021/09/23 08:03:18;;;;;;;;;32.75;30.50;;;;;15.13;69.39;102132.47;4939515;28;45466;-87
2021/09/23 08:05:44;;;;;;;;;33.75;30.50;;;;;15.16;69.11;102132.34;4937956;28;47068;-86
2021/09/23 08:08:10;;;;;;;;;39.75;31.75;;;;;15.23;69.26;102138.34;4922552;28;47226;-87
2021/09/23 08:10:37;;;;;;;;;35.00;33.00;;;;;15.29;69.29;102142.56;4943032;28;45759;-87
2021/09/23 08:13:03;;;;;;;;;33.75;29.50;;;;;15.30;68.74;102136.38;4941243;28;45503;-87
2021/09/23 08:15:30;;;;;;;;;36.00;31.75;;;;;15.36;68.37;102135.31;4925037;28;46365;-86
2021/09/23 08:17:56;;;;;;;;;34.50;29.75;;;;;15.39;68.57;102132.56;4943170;28;46315;-87
2021/09/23 08:21:02;;;;;;;;;38.00;28.75;;;;;15.48;68.56;102132.25;4942209;28;45780;-87
2021/09/23 08:23:28;;;;;;;;;41.00;32.75;;;;;15.51;68.17;102136.59;4942501;28;45367;-87
2021/09/23 08:25:53;;;;;;;;;34.25;32.25;;;;;15.52;68.07;102125.09;4941069;28;46458;-87
2021/09/23 08:28:23;;;;;;;;;37.75;32.00;;;;;15.55;67.86;102126.78;4942523;28;45563;-87
2021/09/23 08:30:49;;;;;;;;;41.75;32.50;;;;;15.61;67.92;102131.88;4942501;28;45861;-86
2021/09/23 08:33:14;;;;;;;;;39.00;32.50;;;;;15.61;68.06;102127.44;4942795;28;45700;-87
2021/09/23 08:35:43;;;;;;;;;31.25;27.50;;;;;15.64;67.70;102121.19;4926261;28;46046;-88
2021/09/23 08:38:36;;;;;;;;;33.25;32.50;;;;;15.73;67.95;102126.19;4943786;28;45406;-88
2021/09/23 08:41:01;;;;;;;;;34.00;30.75;;;;;15.75;67.44;102124.34;4934004;28;45773;-87
2021/09/23 08:43:45;;;;;;;;;36.50;30.00;;;;;15.80;67.93;102120.69;4943791;28;45159;-91
2021/09/23 08:46:38;;;;;;;;;32.75;30.00;;;;;15.89;67.88;102117.72;4943426;28;45616;-87
2021/09/23 08:49:13;;;;;;;;;28.00;26.25;;;;;15.88;67.07;102115.97;4943974;28;45309;-87
2021/09/23 08:51:38;;;;;;;;;33.50;30.75;;;;;15.94;66.57;102129.03;4944474;28;45393;-87
2021/09/23 08:54:06;;;;;;;;;34.25;29.50;;;;;15.96;66.58;102116.59;4939453;28;45518;-88
2021/09/23 08:57:01;;;;;;;;;38.50;32.50;;;;;16.05;66.42;102134.00;4941206;28;45446;-88
2021/09/23 08:59:27;;;;;;;;;36.25;30.50;;;;;16.07;66.00;102128.66;4935298;28;46284;-88
2021/09/23 09:01:53;;;;;;;;;35.75;30.00;;;;;16.13;65.73;102127.56;4935910;28;45737;-88
2021/09/23 09:04:31;;;;;;;;;34.50;30.25;;;;;16.19;65.71;102133.56;4937704;28;45778;-88
2021/09/23 09:06:58;;;;;;;;;34.00;31.75;;;;;16.22;65.88;102129.94;4922244;28;47259;-88
2021/09/23 09:09:24;;;;;;;;;36.00;27.50;;;;;16.27;65.76;102132.41;4938485;28;47214;-88
2021/09/23 09:11:54;;;;;;;;;33.50;27.50;;;;;16.35;64.75;102127.69;4923371;28;45418;-87
2021/09/23 09:14:56;;;;;;;;;25.25;22.00;;;;;16.45;64.54;102140.63;4938854;28;45357;-88
2021/09/23 09:17:35;;;;;;;;;26.25;24.25;;;;;16.47;63.29;102136.16;4940035;28;45609;-87
2021/09/23 09:20:03;;;;;;;;;25.00;21.00;;;;;16.55;63.49;102134.06;4940055;28;46143;-88
2021/09/23 09:22:31;;;;;;;;;25.75;20.25;;;;;16.64;63.13;102139.03;4938933;28;45470;-88
2021/09/23 09:25:01;;;;;;;;;24.25;22.75;;;;;16.68;62.58;102134.50;4940657;28;45614;-88
2021/09/23 09:27:30;;;;;;;;;25.75;25.00;;;;;16.75;62.49;102132.47;4939683;28;47191;-88
2021/09/23 09:29:58;;;;;;;;;25.75;21.75;;;;;16.81;62.04;102134.91;4936749;28;46205;-87
2021/09/23 09:32:38;;;;;;;;;19.25;19.25;;;;;16.85;61.61;102128.56;4941584;28;45663;-89
2021/09/23 09:35:06;;;;;;;;;20.75;19.25;;;;;16.94;61.80;102130.00;4940331;28;45534;-89
2021/09/23 09:37:33;;;;;;;;;16.50;16.50;;;;;16.98;61.27;102134.28;4940450;28;45497;-89
2021/09/23 09:40:00;;;;;;;;;19.75;16.50;;;;;17.06;60.68;102135.78;4941912;28;45495;-90
2021/09/23 09:42:29;;;;;;;;;13.50;13.50;;;;;17.13;60.92;102125.78;4922391;28;45915;-88
2021/09/23 09:44:59;;;;;;;;;15.50;12.50;;;;;17.18;60.71;102126.50;4940421;28;45433;-88
2021/09/23 09:47:35;;;;;;;;;19.50;16.75;;;;;17.16;60.32;102118.56;4940997;28;45419;-89
2021/09/23 09:50:14;;;;;;;;;15.50;13.50;;;;;17.27;60.41;102119.94;4941404;28;45487;-88
2021/09/23 09:52:50;;;;;;;;;13.25;10.50;;;;;17.29;60.05;102113.66;4938486;28;45326;-88
2021/09/23 09:55:18;;;;;;;;;20.75;18.75;;;;;17.33;59.58;102117.06;4923605;28;45380;-89
2021/09/23 09:57:49;;;;;;;;;12.75;12.75;;;;;17.35;59.20;102104.56;4922181;28;47959;-88
2021/09/23 10:00:16;;;;;;;;;19.25;17.50;;;;;17.38;58.92;102100.94;4940240;28;46553;-89
2021/09/23 10:02:43;;;;;;;;;17.00;14.25;;;;;17.41;59.18;102100.78;4940817;28;45289;-89
2021/09/23 10:05:11;;;;;;;;;15.00;14.00;;;;;17.44;58.15;102095.34;4941405;28;45413;-89
2021/09/23 10:07:40;;;;;;;;;13.75;12.75;;;;;17.49;59.06;102101.34;4922036;28;45975;-88
2021/09/23 10:10:06;;;;;;;;;12.00;12.00;;;;;17.54;59.39;102099.38;4940450;28;45515;-90
2021/09/23 10:12:33;;;;;;;;;12.75;12.25;;;;;17.61;58.87;102109.75;4923560;28;46029;-90
2021/09/23 10:14:59;;;;;;;;;16.00;13.75;;;;;17.66;58.19;102102.44;4923360;28;45368;-90
2021/09/23 10:17:29;;;;;;;;;19.75;13.25;;;;;17.64;58.25;102094.53;4940687;28;45543;-90
2021/09/23 10:19:57;;;;;;;;;15.00;14.00;;;;;17.69;58.46;102099.66;4941473;28;46611;-92
2021/09/23 10:22:22;;;;;;;;;13.25;12.50;;;;;17.75;58.65;102099.41;4924591;28;45258;-90
2021/09/23 10:24:49;;;;;;;;;12.25;12.25;;;;;17.81;58.37;102094.75;4939974;28;45410;-89
2021/09/23 10:30:00;;;;;;;;;14.00;12.50;;;;;17.90;58.05;102096.16;4940961;28;45389;-90
2021/09/23 10:32:26;;;;;;;;;13.50;12.25;;;;;17.90;57.62;102097.03;4940397;28;45528;-89
2021/09/23 10:34:52;;;;;;;;;11.50;11.50;;;;;17.98;58.36;102089.59;4935942;28;45516;-89
2021/09/23 10:37:19;;;;;;;;;18.50;17.00;;;;;17.98;58.18;102084.25;4941206;28;45399;-90
2021/09/23 10:39:45;;;;;;;;;15.00;14.25;;;;;18.02;58.39;102084.13;4941936;28;46064;-89
2021/09/23 10:42:19;;;;;;;;;12.25;11.50;;;;;18.04;57.96;102085.81;4939012;28;45457;-90
2021/09/23 10:44:46;;;;;;;;;19.50;13.50;;;;;18.11;57.34;102081.06;4940136;28;45377;-91
2021/09/23 10:47:11;;;;;;;;;20.00;16.00;;;;;18.10;57.01;102082.00;4940005;28;45639;-91
2021/09/23 10:49:36;;;;;;;;;15.00;13.50;;;;;18.11;57.19;102075.75;4942441;28;45493;-90
2021/09/23 10:52:02;;;;;;;;;16.25;13.25;;;;;18.18;56.60;102077.22;4941376;28;45274;-91
2021/09/23 10:54:28;;;;;;;;;18.50;14.25;;;;;18.18;57.52;102068.34;4940422;28;45334;-90
2021/09/23 10:56:53;;;;;;;;;15.25;14.25;;;;;18.21;57.45;102069.13;4922259;28;47031;-90
2021/09/23 10:59:21;;;;;;;;;12.00;10.25;;;;;18.22;57.67;102062.84;4940464;28;46278;-89
2021/09/23 11:01:46;;;;;;;;;14.75;14.00;;;;;18.23;57.86;102055.75;4939528;28;45516;-89
2021/09/23 11:04:12;;;;;;;;;13.50;11.25;;;;;18.27;57.63;102051.16;4940366;28;45456;-89
2021/09/23 11:06:40;;;;;;;;;12.00;11.00;;;;;18.32;57.25;102046.50;4924650;28;46915;-89
2021/09/23 11:09:35;;;;;;;;;19.75;16.75;;;;;18.36;56.79;102049.88;4941654;28;46267;-89
2021/09/23 11:12:03;;;;;;;;;15.25;10.25;;;;;18.38;56.76;102040.88;4931286;28;45496;-89
2021/09/23 11:14:30;;;;;;;;;12.00;12.00;;;;;18.41;57.22;102040.75;4923805;28;45548;-91
2021/09/23 11:16:58;;;;;;;;;15.00;13.25;;;;;18.39;56.82;102031.97;4941601;28;45608;-90
2021/09/23 11:19:24;;;;;;;;;11.50;10.25;;;;;18.39;57.35;102039.97;4940681;28;47309;-90
2021/09/23 11:21:53;;;;;;;;;12.50;11.00;;;;;18.41;57.61;102029.25;4924268;28;45418;-90
2021/09/23 11:24:22;;;;;;;;;13.25;13.25;;;;;18.44;57.57;102027.31;4941603;28;45520;-90
2021/09/23 11:26:47;;;;;;;;;9.50;8.25;;;;;18.42;57.45;102018.50;4938323;28;45623;-90
2021/09/23 11:29:13;;;;;;;;;16.75;14.25;;;;;18.50;57.36;102033.25;4940764;28;45541;-90
2021/09/23 11:31:49;;;;;;;;;13.25;10.50;;;;;18.51;56.95;102019.91;4941250;28;45387;-89
2021/09/23 11:34:37;;;;;;;;;13.25;11.50;;;;;18.52;56.79;102018.09;4941052;28;45215;-90
2021/09/23 11:37:05;;;;;;;;;17.50;13.50;;;;;18.51;57.00;102008.38;4939232;28;45824;-89
2021/09/23 11:39:30;;;;;;;;;15.75;12.75;;;;;18.55;56.91;102015.28;4922772;28;47171;-90
2021/09/23 11:42:14;;;;;;;;;11.25;11.25;;;;;18.57;56.38;101997.44;4940429;28;45477;-90
2021/09/23 11:44:42;;;;;;;;;14.50;14.25;;;;;18.57;55.95;101992.09;4939318;28;45633;-90
2021/09/23 11:47:13;;;;;;;;;10.25;8.00;;;;;18.60;56.96;101983.13;4922457;28;47045;-90
2021/09/23 11:49:38;;;;;;;;;12.25;11.75;;;;;18.64;57.50;102000.69;4945902;28;46078;-89
2021/09/23 11:52:03;;;;;;;;;15.00;12.50;;;;;18.63;56.46;101999.81;4940190;28;45223;-88
2021/09/23 11:54:30;;;;;;;;;10.50;9.50;;;;;18.71;55.43;102003.91;4941077;28;45349;-90
2021/09/23 11:56:55;;;;;;;;;12.50;10.00;;;;;18.73;55.10;102002.91;4938363;28;45412;-91
2021/09/23 11:59:25;;;;;;;;;10.00;10.00;;;;;18.81;56.31;102007.88;4923427;28;47059;-90
2021/09/23 12:02:05;;;;;;;;;13.50;8.75;;;;;18.81;55.27;102005.22;4938685;28;45888;-90
2021/09/23 12:04:32;;;;;;;;;10.00;10.00;;;;;18.86;55.63;101995.19;4940596;28;45551;-89
2021/09/23 12:07:06;;;;;;;;;10.50;10.50;;;;;18.91;56.27;102002.09;4923568;28;46184;-90
2021/09/23 12:09:36;;;;;;;;;14.00;13.00;;;;;18.92;55.13;102001.13;4940654;28;45388;-90
2021/09/23 12:12:03;;;;;;;;;13.25;12.25;;;;;18.94;55.54;101989.47;4938734;28;45326;-90
2021/09/23 12:14:28;;;;;;;;;13.00;12.50;;;;;18.98;54.61;101987.53;4923616;28;45455;-91
2021/09/23 12:17:02;;;;;;;;;10.75;8.50;;;;;19.01;54.53;101984.72;4940848;28;45542;-90
2021/09/23 12:19:28;;;;;;;;;10.25;9.75;;;;;19.06;54.44;101990.66;4923726;28;47248;-90
2021/09/23 12:21:55;;;;;;;;;10.25;9.75;;;;;19.10;55.31;101986.06;4939809;28;45195;-90
2021/09/23 12:24:49;;;;;;;;;12.25;12.25;;;;;19.06;53.90;101980.00;4940693;28;45383;-90
2021/09/23 12:27:15;;;;;;;;;11.50;11.50;;;;;19.17;53.58;101989.28;4914903;28;46020;-89
2021/09/23 12:29:41;;;;;;;;;13.00;10.25;;;;;19.21;53.41;101990.91;4937131;28;46610;-90
2021/09/23 12:32:09;;;;;;;;;10.00;8.25;;;;;19.26;54.12;101986.19;4941016;28;45402;-90
2021/09/23 12:34:44;;;;;;;;;10.25;8.50;;;;;19.31;54.26;101985.97;4923661;28;45287;-90
2021/09/23 12:37:11;;;;;;;;;13.75;11.75;;;;;19.28;53.67;101975.47;4939945;28;45222;-90
2021/09/23 12:39:45;;;;;;;;;10.75;10.75;;;;;19.32;53.09;101977.88;4939876;28;45533;-89
2021/09/23 12:42:25;;;;;;;;;13.75;12.25;;;;;19.38;53.19;101975.84;4922837;28;45644;-89
2021/09/23 12:45:04;;;;;;;;;14.75;12.50;;;;;19.37;52.73;101971.44;4923265;28;45428;-89
2021/09/23 12:47:41;;;;;;;;;11.50;11.50;;;;;19.47;52.32;101966.50;4938666;28;45992;-90
2021/09/23 12:50:07;;;;;;;;;13.75;12.50;;;;;19.51;53.46;101968.94;4932712;28;48163;-90
2021/09/23 12:52:32;;;;;;;;;12.00;11.25;;;;;19.53;52.49;101971.53;4940467;28;45235;-90
2021/09/23 12:55:25;;;;;;;;;11.00;11.00;;;;;19.58;51.43;101965.97;4939254;28;45256;-90
2021/09/23 12:57:56;;;;;;;;;13.00;8.00;;;;;19.61;51.69;101958.66;4943309;28;45266;-90
2021/09/23 13:00:34;;;;;;;;;13.00;11.75;;;;;19.67;51.91;101957.47;4941993;28;46287;-91
2021/09/23 13:03:08;;;;;;;;;23.75;18.00;;;;;19.64;51.75;101949.63;4926057;28;45240;-91
2021/09/23 13:05:38;;;;;;;;;21.00;15.75;;;;;19.67;51.84;101946.81;4926225;28;45351;-91
2021/09/23 13:08:08;;;;;;;;;13.25;12.75;;;;;19.74;51.63;101948.22;4925930;28;46117;-91
2021/09/23 13:10:34;;;;;;;;;15.25;12.75;;;;;19.75;51.85;101947.28;4943451;28;45423;-90
2021/09/23 13:13:03;;;;;;;;;15.50;14.50;;;;;19.74;51.94;101942.00;4926031;28;45572;-91
2021/09/23 13:15:33;;;;;;;;;15.25;13.00;;;;;19.77;51.64;101932.06;4943551;28;45250;-93
2021/09/23 13:18:00;;;;;;;;;15.75;13.25;;;;;19.81;51.42;101942.53;4947050;28;46278;-90
2021/09/23 13:20:25;;;;;;;;;16.00;15.75;;;;;19.87;51.74;101952.91;4942421;28;46318;-91
2021/09/23 13:22:51;;;;;;;;;15.50;15.50;;;;;19.90;51.11;101942.06;4943262;28;45186;-91
2021/09/23 13:25:17;;;;;;;;;13.00;13.00;;;;;19.96;51.00;101935.53;4942645;28;45256;-91
2021/09/23 13:27:42;;;;;;;;;16.50;12.25;;;;;20.04;50.96;101933.31;4930741;28;45580;-88
2021/09/23 13:30:12;;;;;;;;;13.25;13.25;;;;;20.08;50.23;101929.53;4925902;28;47955;-88
2021/09/23 13:32:47;;;;;;;;;12.50;12.00;;;;;20.11;50.79;101934.72;4942485;28;45457;-89
2021/09/23 13:35:14;;;;;;;;;13.25;13.25;;;;;20.11;50.28;101934.72;4939733;28;45404;-88
2021/09/23 13:37:41;;;;;;;;;15.50;15.50;;;;;20.10;50.65;101926.78;4941743;28;46914;-90
2021/09/23 13:40:08;;;;;;;;;13.00;11.25;;;;;20.19;50.55;101939.66;4942974;28;45243;-87
2021/09/23 13:42:34;;;;;;;;;13.00;10.50;;;;;20.21;51.02;101919.06;4922192;28;45964;-88
2021/09/23 13:44:59;;;;;;;;;8.25;8.25;;;;;20.23;50.13;101925.19;4934580;28;45511;-87
2021/09/23 13:47:25;;;;;;;;;14.00;14.00;;;;;20.23;50.85;101922.50;4942627;28;45357;-87
2021/09/23 13:49:50;;;;;;;;;14.75;13.00;;;;;20.25;50.61;101925.06;4944443;28;45348;-87
2021/09/23 13:52:15;;;;;;;;;13.25;11.75;;;;;20.25;51.09;101914.41;4943370;28;45315;-88
2021/09/23 13:54:41;;;;;;;;;16.25;12.75;;;;;20.28;50.97;101913.38;4943247;28;45318;-88
2021/09/23 13:57:07;;;;;;;;;11.25;11.25;;;;;20.29;51.44;101907.09;4925651;28;46915;-88
2021/09/23 13:59:33;;;;;;;;;9.50;9.50;;;;;20.29;51.85;101905.31;4942910;28;45375;-89
2021/09/23 14:01:58;;;;;;;;;16.00;16.00;;;;;20.29;51.19;101904.44;4943127;28;45317;-88
2021/09/23 14:04:23;;;;;;;;;12.75;12.75;;;;;20.30;51.17;101901.66;4926153;28;45359;-89
2021/09/23 14:06:49;;;;;;;;;12.25;10.75;;;;;20.36;50.53;101900.47;4942598;28;45520;-89
2021/09/23 14:09:14;;;;;;;;;10.50;10.25;;;;;20.40;49.79;101890.47;4941686;28;47037;-89
2021/09/23 14:11:39;;;;;;;;;13.75;13.00;;;;;20.38;49.59;101887.03;4924890;28;45248;-88
2021/09/23 14:14:05;;;;;;;;;14.75;11.00;;;;;20.38;49.30;101879.88;4941247;28;45323;-88
2021/09/23 14:16:30;;;;;;;;;16.25;13.50;;;;;20.41;50.24;101879.72;4942917;28;45300;-88
2021/09/23 14:18:55;;;;;;;;;15.25;14.00;;;;;20.46;50.03;101877.66;4942413;28;45230;-89
2021/09/23 14:21:21;;;;;;;;;13.25;12.00;;;;;20.43;49.86;101859.13;4942782;28;45203;-88
2021/09/23 14:23:47;;;;;;;;;13.50;10.50;;;;;20.48;49.69;101861.53;4942908;28;45337;-89
2021/09/23 14:26:13;;;;;;;;;12.00;9.75;;;;;20.50;49.99;101861.41;4942467;28;45236;-89
2021/09/23 14:28:39;;;;;;;;;14.75;13.25;;;;;20.50;50.33;101853.41;4942613;28;45430;-88
2021/09/23 14:31:04;;;;;;;;;12.00;11.00;;;;;20.51;50.62;101849.81;4924216;28;45440;-88
2021/09/23 14:33:29;;;;;;;;;14.00;12.25;;;;;20.49;50.32;101849.91;4925480;28;45324;-88
2021/09/23 14:35:55;;;;;;;;;12.25;10.75;;;;;20.51;50.11;101844.47;4942510;28;45555;-88
2021/09/23 14:38:20;;;;;;;;;11.75;11.00;;;;;20.52;50.14;101840.84;4942467;28;45561;-89
2021/09/23 14:40:47;;;;;;;;;14.00;12.00;;;;;20.51;49.88;101840.00;4941942;28;45278;-88
2021/09/23 14:43:12;;;;;;;;;12.75;9.75;;;;;20.50;50.61;101835.59;4925109;28;45306;-88
2021/09/23 14:45:38;;;;;;;;;13.50;12.75;;;;;20.53;50.62;101848.78;4942281;28;45334;-88
2021/09/23 14:48:03;;;;;;;;;14.25;11.00;;;;;20.50;50.68;101838.25;4942196;28;46079;-88
2021/09/23 14:50:29;;;;;;;;;15.25;13.50;;;;;20.53;51.15;101834.56;4931285;28;45291;-88
2021/09/23 14:52:54;;;;;;;;;15.00;13.50;;;;;20.59;51.24;101836.88;4921650;28;45373;-88
2021/09/23 14:55:20;;;;;;;;;9.25;9.25;;;;;20.54;51.43;101834.47;4937342;28;45490;-88
2021/09/23 14:57:45;;;;;;;;;14.50;11.25;;;;;20.54;51.75;101842.50;4924776;28;48340;-88
2021/09/23 15:00:12;;;;;;;;;13.00;10.50;;;;;20.54;51.11;101836.28;4941928;28;45417;-89
2021/09/23 15:02:38;;;;;;;;;11.00;10.25;;;;;20.54;51.46;101833.63;4942374;28;45260;-89
2021/09/23 15:05:04;;;;;;;;;9.50;9.25;;;;;20.56;51.20;101837.06;4941802;28;45294;-88
2021/09/23 15:07:30;;;;;;;;;11.50;10.25;;;;;20.51;51.69;101842.66;4942137;28;46397;-88
2021/09/23 15:09:55;;;;;;;;;11.25;11.25;;;;;20.45;51.55;101833.19;4924539;28;45795;-89
2021/09/23 15:12:21;;;;;;;;;13.75;12.75;;;;;20.45;51.00;101833.19;4942120;28;45685;-87
2021/09/23 15:14:46;;;;;;;;;14.00;11.50;;;;;20.45;50.33;101830.50;4941482;28;45466;-88
2021/09/23 15:17:12;;;;;;;;;12.50;9.75;;;;;20.46;50.88;101826.91;4930885;28;45656;-88
2021/09/23 15:19:37;;;;;;;;;12.50;11.50;;;;;20.49;50.50;101828.53;4940965;28;45333;-88
2021/09/23 15:22:03;;;;;;;;;15.00;12.25;;;;;20.51;51.18;101829.31;4942080;28;45319;-88
2021/09/23 15:24:29;;;;;;;;;9.75;9.50;;;;;20.50;51.10;101829.38;4941983;28;45473;-89
2021/09/23 15:26:55;;;;;;;;;13.00;9.00;;;;;20.49;51.35;101819.66;4941278;28;46423;-88
2021/09/23 15:29:20;;;;;;;;;8.75;8.25;;;;;20.48;50.63;101821.47;4941826;28;45249;-88
2021/09/23 15:31:47;;;;;;;;;13.00;10.25;;;;;20.45;50.17;101819.84;4941762;28;45252;-88
2021/09/23 15:34:13;;;;;;;;;10.00;9.75;;;;;20.49;49.92;101815.19;4941658;28;45445;-88
2021/09/23 15:36:39;;;;;;;;;9.00;9.00;;;;;20.53;50.09;101819.41;4923670;28;46880;-88
2021/09/23 15:39:04;;;;;;;;;8.75;8.75;;;;;20.51;50.07;101804.41;4924063;28;45710;-88
2021/09/23 15:41:29;;;;;;;;;8.25;8.00;;;;;20.49;49.55;101807.19;4941156;28;45264;-88
2021/09/23 15:43:55;;;;;;;;;10.00;7.75;;;;;20.51;48.94;101805.28;4940754;28;45529;-88
2021/09/23 15:46:21;;;;;;;;;9.00;9.00;;;;;20.54;48.38;101798.91;4941351;28;45422;-88
2021/09/23 15:48:46;;;;;;;;;8.25;8.25;;;;;20.58;48.51;101803.97;4941044;28;45715;-88
2021/09/23 15:51:12;;;;;;;;;8.50;8.25;;;;;20.63;48.20;101808.16;4948741;28;45422;-88
2021/09/23 15:53:37;;;;;;;;;11.75;9.75;;;;;20.64;49.23;101807.22;4941407;28;45450;-88
2021/09/23 15:56:03;;;;;;;;;9.00;8.75;;;;;20.64;49.18;101808.06;4923228;28;47065;-88
2021/09/23 15:58:29;;;;;;;;;9.75;8.75;;;;;20.62;48.69;101807.31;4941623;28;45465;-88
2021/09/23 16:00:55;;;;;;;;;8.50;7.25;;;;;20.63;48.91;101809.03;4940885;28;45219;-88
2021/09/23 16:03:20;;;;;;;;;9.50;8.25;;;;;20.61;48.53;101808.25;4924076;28;46032;-88
2021/09/23 16:05:46;;;;;;;;;10.00;9.00;;;;;20.62;48.37;101809.97;4939826;28;48172;-88
2021/09/23 16:08:11;;;;;;;;;8.00;8.00;;;;;20.59;48.39;101810.19;4939929;28;45265;-88
2021/09/23 16:10:41;;;;;;;;;12.50;9.25;;;;;20.60;48.52;101801.19;4923810;28;45437;-88
2021/09/23 16:13:08;;;;;;;;;9.00;7.75;;;;;20.61;48.31;101813.59;4941070;28;45455;-88
2021/09/23 16:15:34;;;;;;;;;8.50;8.00;;;;;20.57;48.54;101806.72;4940969;28;45497;-88
2021/09/23 16:18:00;;;;;;;;;9.25;8.00;;;;;20.59;48.44;101807.50;4941098;28;45244;-86
2021/09/23 16:20:27;;;;;;;;;9.25;8.25;;;;;20.60;48.72;101821.69;4940314;28;45461;-90
2021/09/23 16:22:53;;;;;;;;;7.50;7.00;;;;;20.59;48.13;101815.50;4941112;28;45224;-87
2021/09/23 16:25:19;;;;;;;;;7.75;6.25;;;;;20.55;48.00;101809.47;4941992;28;45441;-95